sensor_id;sensor_type;location;lat;lon;timestamp;temperature;humidity
14409;DHT22;7289;50.706;4.992;2023-05-07T00:00:09;14.80;99.90
14409;DHT22;7289;50.706;4.992;2023-05-07T00:02:38;14.80;99.90
14409;DHT22;7289;50.706;4.992;2023-05-07T00:05:08;14.80;99.90
14409;DHT22;7289;50.706;4.992;2023-05-07T00:07:37;14.90;99.90
14409;DHT22;7289;50.706;4.992;2023-05-07T00:10:06;14.90;99.90
14409;DHT22;7289;50.706;4.992;2023-05-07T00:12:35;14.90;99.90
14409;DHT22;7289;50.706;4.992;2023-05-07T00:15:05;14.90;99.90
14409;DHT22;7289;50.706;4.992;2023-05-07T00:17:35;15.00;99.90
14409;DHT22;7289;50.706;4.992;2023-05-07T00:20:04;15.00;99.90
14409;DHT22;7289;50.706;4.992;2023-05-07T00:22:33;15.00;99.90
14409;DHT22;7289;50.706;4.992;2023-05-07T00:25:01;15.00;99.90
14409;DHT22;7289;50.706;4.992;2023-05-07T00:27:30;14.90;99.90
14409;DHT22;7289;50.706;4.992;2023-05-07T00:29:58;14.90;99.90
14409;DHT22;7289;50.706;4.992;2023-05-07T00:32:27;14.90;99.90
14409;DHT22;7289;50.706;4.992;2023-05-07T00:34:56;15.00;99.90
14409;DHT22;7289;50.706;4.992;2023-05-07T00:37:25;15.00;99.90
14409;DHT22;7289;50.706;4.992;2023-05-07T00:39:53;15.10;99.90
14409;DHT22;7289;50.706;4.992;2023-05-07T00:42:22;15.10;99.90
14409;DHT22;7289;50.706;4.992;2023-05-07T00:44:51;15.10;99.90
14409;DHT22;7289;50.706;4.992;2023-05-07T00:47:19;15.00;99.90
14409;DHT22;7289;50.706;4.992;2023-05-07T00:49:48;15.10;99.90
14409;DHT22;7289;50.706;4.992;2023-05-07T00:52:20;15.00;99.90
14409;DHT22;7289;50.706;4.992;2023-05-07T00:54:49;15.00;99.90
14409;DHT22;7289;50.706;4.992;2023-05-07T00:57:18;14.90;99.90
14409;DHT22;7289;50.706;4.992;2023-05-07T00:59:47;14.90;99.90
14409;DHT22;7289;50.706;4.992;2023-05-07T01:02:15;14.80;99.90
14409;DHT22;7289;50.706;4.992;2023-05-07T01:04:44;14.70;99.90
14409;DHT22;7289;50.706;4.992;2023-05-07T01:07:14;14.60;99.90
14409;DHT22;7289;50.706;4.992;2023-05-07T01:09:44;14.50;99.90
14409;DHT22;7289;50.706;4.992;2023-05-07T01:12:13;14.40;99.90
14409;DHT22;7289;50.706;4.992;2023-05-07T01:14:41;14.30;99.90
14409;DHT22;7289;50.706;4.992;2023-05-07T01:17:10;14.30;99.90
14409;DHT22;7289;50.706;4.992;2023-05-07T01:19:38;14.30;99.90
14409;DHT22;7289;50.706;4.992;2023-05-07T01:22:08;14.20;99.90
14409;DHT22;7289;50.706;4.992;2023-05-07T01:24:51;14.10;99.90
14409;DHT22;7289;50.706;4.992;2023-05-07T01:27:19;14.10;99.90
14409;DHT22;7289;50.706;4.992;2023-05-07T01:29:50;14.00;99.90
14409;DHT22;7289;50.706;4.992;2023-05-07T01:32:21;14.00;99.90
14409;DHT22;7289;50.706;4.992;2023-05-07T01:34:53;14.00;99.90
14409;DHT22;7289;50.706;4.992;2023-05-07T01:37:22;14.00;99.90
14409;DHT22;7289;50.706;4.992;2023-05-07T01:39:53;14.10;99.90
14409;DHT22;7289;50.706;4.992;2023-05-07T01:42:22;14.10;99.90
14409;DHT22;7289;50.706;4.992;2023-05-07T01:44:50;14.10;99.90
14409;DHT22;7289;50.706;4.992;2023-05-07T01:47:19;14.10;99.90
14409;DHT22;7289;50.706;4.992;2023-05-07T01:49:48;14.10;99.90
14409;DHT22;7289;50.706;4.992;2023-05-07T01:52:17;14.20;99.90
14409;DHT22;7289;50.706;4.992;2023-05-07T01:54:45;14.20;99.90
14409;DHT22;7289;50.706;4.992;2023-05-07T01:57:15;14.30;99.90
14409;DHT22;7289;50.706;4.992;2023-05-07T01:59:44;14.40;99.90
14409;DHT22;7289;50.706;4.992;2023-05-07T02:02:12;14.50;99.90
14409;DHT22;7289;50.706;4.992;2023-05-07T02:04:43;14.50;99.90
14409;DHT22;7289;50.706;4.992;2023-05-07T02:07:13;14.50;99.90
14409;DHT22;7289;50.706;4.992;2023-05-07T02:09:41;14.60;99.90
14409;DHT22;7289;50.706;4.992;2023-05-07T02:12:10;14.60;99.90
14409;DHT22;7289;50.706;4.992;2023-05-07T02:14:40;14.60;99.90
14409;DHT22;7289;50.706;4.992;2023-05-07T02:17:09;14.60;99.90
14409;DHT22;7289;50.706;4.992;2023-05-07T02:19:37;14.60;99.90
14409;DHT22;7289;50.706;4.992;2023-05-07T02:22:06;14.60;99.90
14409;DHT22;7289;50.706;4.992;2023-05-07T02:24:35;14.60;99.90
14409;DHT22;7289;50.706;4.992;2023-05-07T02:27:03;14.60;99.90
14409;DHT22;7289;50.706;4.992;2023-05-07T02:29:32;14.60;99.90
14409;DHT22;7289;50.706;4.992;2023-05-07T02:32:02;14.60;99.90
14409;DHT22;7289;50.706;4.992;2023-05-07T02:34:31;14.50;99.90
14409;DHT22;7289;50.706;4.992;2023-05-07T02:36:59;14.50;99.90
14409;DHT22;7289;50.706;4.992;2023-05-07T02:39:28;14.60;99.90
14409;DHT22;7289;50.706;4.992;2023-05-07T02:41:56;14.60;99.90
14409;DHT22;7289;50.706;4.992;2023-05-07T02:44:24;14.60;99.90
14409;DHT22;7289;50.706;4.992;2023-05-07T02:46:53;14.60;99.90
14409;DHT22;7289;50.706;4.992;2023-05-07T02:49:23;14.50;99.90
14409;DHT22;7289;50.706;4.992;2023-05-07T02:51:52;14.50;99.90
14409;DHT22;7289;50.706;4.992;2023-05-07T02:54:23;14.50;99.90
14409;DHT22;7289;50.706;4.992;2023-05-07T02:56:51;14.50;99.90
14409;DHT22;7289;50.706;4.992;2023-05-07T02:59:20;14.50;99.90
14409;DHT22;7289;50.706;4.992;2023-05-07T03:01:48;14.50;99.90
14409;DHT22;7289;50.706;4.992;2023-05-07T03:04:17;14.40;99.90
14409;DHT22;7289;50.706;4.992;2023-05-07T03:06:47;14.30;99.90
14409;DHT22;7289;50.706;4.992;2023-05-07T03:09:15;14.30;99.90
14409;DHT22;7289;50.706;4.992;2023-05-07T03:11:44;14.30;99.90
14409;DHT22;7289;50.706;4.992;2023-05-07T03:14:12;14.40;99.90
14409;DHT22;7289;50.706;4.992;2023-05-07T03:16:41;14.40;99.90
14409;DHT22;7289;50.706;4.992;2023-05-07T03:19:09;14.40;99.90
14409;DHT22;7289;50.706;4.992;2023-05-07T03:21:38;14.40;99.90
14409;DHT22;7289;50.706;4.992;2023-05-07T03:24:08;14.40;99.90
14409;DHT22;7289;50.706;4.992;2023-05-07T03:26:36;14.40;99.90
14409;DHT22;7289;50.706;4.992;2023-05-07T03:29:05;14.40;99.90
14409;DHT22;7289;50.706;4.992;2023-05-07T03:31:33;14.50;99.90
14409;DHT22;7289;50.706;4.992;2023-05-07T03:34:02;14.50;99.90
14409;DHT22;7289;50.706;4.992;2023-05-07T03:36:30;14.60;99.90
14409;DHT22;7289;50.706;4.992;2023-05-07T03:38:58;14.50;99.90
14409;DHT22;7289;50.706;4.992;2023-05-07T03:41:36;14.60;99.90
14409;DHT22;7289;50.706;4.992;2023-05-07T03:44:05;14.60;99.90
14409;DHT22;7289;50.706;4.992;2023-05-07T03:46:34;14.60;99.90
14409;DHT22;7289;50.706;4.992;2023-05-07T03:49:03;14.60;99.90
14409;DHT22;7289;50.706;4.992;2023-05-07T03:51:31;14.60;99.90
14409;DHT22;7289;50.706;4.992;2023-05-07T03:54:00;14.60;99.90
14409;DHT22;7289;50.706;4.992;2023-05-07T03:56:30;14.60;99.90
14409;DHT22;7289;50.706;4.992;2023-05-07T03:59:01;14.60;99.90
14409;DHT22;7289;50.706;4.992;2023-05-07T04:01:29;14.60;99.90
14409;DHT22;7289;50.706;4.992;2023-05-07T04:03:58;14.60;99.90
14409;DHT22;7289;50.706;4.992;2023-05-07T04:06:26;14.70;99.90
14409;DHT22;7289;50.706;4.992;2023-05-07T04:08:55;14.70;99.90
14409;DHT22;7289;50.706;4.992;2023-05-07T04:11:24;14.70;99.90
14409;DHT22;7289;50.706;4.992;2023-05-07T04:13:52;14.60;99.90
14409;DHT22;7289;50.706;4.992;2023-05-07T04:16:24;14.60;99.90
14409;DHT22;7289;50.706;4.992;2023-05-07T04:18:52;14.60;99.90
14409;DHT22;7289;50.706;4.992;2023-05-07T04:21:21;14.70;99.90
14409;DHT22;7289;50.706;4.992;2023-05-07T04:23:50;14.70;99.90
14409;DHT22;7289;50.706;4.992;2023-05-07T04:26:19;14.70;99.90
14409;DHT22;7289;50.706;4.992;2023-05-07T04:28:48;14.80;99.90
14409;DHT22;7289;50.706;4.992;2023-05-07T04:31:16;14.90;99.90
14409;DHT22;7289;50.706;4.992;2023-05-07T04:33:51;14.90;99.90
14409;DHT22;7289;50.706;4.992;2023-05-07T04:36:20;14.80;99.90
14409;DHT22;7289;50.706;4.992;2023-05-07T04:38:58;14.70;99.90
14409;DHT22;7289;50.706;4.992;2023-05-07T04:41:26;14.70;99.90
14409;DHT22;7289;50.706;4.992;2023-05-07T04:43:55;14.70;99.90
14409;DHT22;7289;50.706;4.992;2023-05-07T04:46:28;14.70;99.90
14409;DHT22;7289;50.706;4.992;2023-05-07T04:48:59;14.70;99.90
14409;DHT22;7289;50.706;4.992;2023-05-07T04:51:27;14.80;99.90
14409;DHT22;7289;50.706;4.992;2023-05-07T04:53:56;14.80;99.90
14409;DHT22;7289;50.706;4.992;2023-05-07T04:56:27;14.80;99.90
14409;DHT22;7289;50.706;4.992;2023-05-07T04:58:57;14.90;99.90
14409;DHT22;7289;50.706;4.992;2023-05-07T05:01:27;15.00;99.90
14409;DHT22;7289;50.706;4.992;2023-05-07T05:03:56;15.10;99.90
14409;DHT22;7289;50.706;4.992;2023-05-07T05:06:26;15.20;99.90
14409;DHT22;7289;50.706;4.992;2023-05-07T05:08:54;15.30;99.90
14409;DHT22;7289;50.706;4.992;2023-05-07T05:11:24;15.40;99.90
14409;DHT22;7289;50.706;4.992;2023-05-07T05:13:53;15.40;99.90
14409;DHT22;7289;50.706;4.992;2023-05-07T05:16:21;15.50;99.90
14409;DHT22;7289;50.706;4.992;2023-05-07T05:18:49;15.60;99.90
14409;DHT22;7289;50.706;4.992;2023-05-07T05:21:19;15.70;99.90
14409;DHT22;7289;50.706;4.992;2023-05-07T05:23:52;15.80;99.90
14409;DHT22;7289;50.706;4.992;2023-05-07T05:26:23;15.90;99.90
14409;DHT22;7289;50.706;4.992;2023-05-07T05:28:52;16.00;99.90
14409;DHT22;7289;50.706;4.992;2023-05-07T05:31:23;16.00;99.90
14409;DHT22;7289;50.706;4.992;2023-05-07T05:33:51;16.10;99.90
14409;DHT22;7289;50.706;4.992;2023-05-07T05:36:20;16.20;99.90
14409;DHT22;7289;50.706;4.992;2023-05-07T05:38:52;16.30;99.90
14409;DHT22;7289;50.706;4.992;2023-05-07T05:41:21;16.40;99.90
14409;DHT22;7289;50.706;4.992;2023-05-07T05:43:50;16.50;99.90
14409;DHT22;7289;50.706;4.992;2023-05-07T05:46:19;16.70;99.90
14409;DHT22;7289;50.706;4.992;2023-05-07T05:48:50;16.80;99.90
14409;DHT22;7289;50.706;4.992;2023-05-07T05:51:18;17.00;99.90
14409;DHT22;7289;50.706;4.992;2023-05-07T05:53:47;17.10;99.90
14409;DHT22;7289;50.706;4.992;2023-05-07T05:56:17;17.30;99.90
14409;DHT22;7289;50.706;4.992;2023-05-07T05:58:46;17.50;99.90
14409;DHT22;7289;50.706;4.992;2023-05-07T06:01:15;17.60;99.90
14409;DHT22;7289;50.706;4.992;2023-05-07T06:03:45;17.80;99.90
14409;DHT22;7289;50.706;4.992;2023-05-07T06:06:15;17.90;99.90
14409;DHT22;7289;50.706;4.992;2023-05-07T06:08:44;18.00;99.90
14409;DHT22;7289;50.706;4.992;2023-05-07T06:11:18;18.10;99.90
14409;DHT22;7289;50.706;4.992;2023-05-07T06:13:47;18.20;99.90
14409;DHT22;7289;50.706;4.992;2023-05-07T06:16:15;18.30;99.90
14409;DHT22;7289;50.706;4.992;2023-05-07T06:18:44;18.40;99.90
14409;DHT22;7289;50.706;4.992;2023-05-07T06:21:15;18.50;99.90
14409;DHT22;7289;50.706;4.992;2023-05-07T06:23:43;18.60;99.90
14409;DHT22;7289;50.706;4.992;2023-05-07T06:26:11;18.60;99.90
14409;DHT22;7289;50.706;4.992;2023-05-07T06:28:44;18.70;99.90
14409;DHT22;7289;50.706;4.992;2023-05-07T06:31:15;18.80;99.90
14409;DHT22;7289;50.706;4.992;2023-05-07T06:33:50;18.80;99.90
14409;DHT22;7289;50.706;4.992;2023-05-07T06:36:19;18.80;99.90
14409;DHT22;7289;50.706;4.992;2023-05-07T06:38:47;18.80;99.90
14409;DHT22;7289;50.706;4.992;2023-05-07T06:41:16;18.90;99.90
14409;DHT22;7289;50.706;4.992;2023-05-07T06:43:45;18.80;99.90
14409;DHT22;7289;50.706;4.992;2023-05-07T06:46:35;18.90;99.90
14409;DHT22;7289;50.706;4.992;2023-05-07T06:49:05;18.90;99.90
14409;DHT22;7289;50.706;4.992;2023-05-07T06:51:33;18.90;99.90
14409;DHT22;7289;50.706;4.992;2023-05-07T06:54:03;19.00;99.90
14409;DHT22;7289;50.706;4.992;2023-05-07T06:56:34;19.10;99.90
14409;DHT22;7289;50.706;4.992;2023-05-07T06:59:06;19.00;99.90
14409;DHT22;7289;50.706;4.992;2023-05-07T07:01:39;19.10;99.90
14409;DHT22;7289;50.706;4.992;2023-05-07T07:04:09;19.20;99.90
14409;DHT22;7289;50.706;4.992;2023-05-07T07:06:40;19.30;99.90
14409;DHT22;7289;50.706;4.992;2023-05-07T07:09:12;19.40;99.90
14409;DHT22;7289;50.706;4.992;2023-05-07T07:11:41;19.50;99.90
14409;DHT22;7289;50.706;4.992;2023-05-07T07:14:11;19.60;99.90
14409;DHT22;7289;50.706;4.992;2023-05-07T07:16:45;19.70;99.90
14409;DHT22;7289;50.706;4.992;2023-05-07T07:19:16;19.90;99.90
14409;DHT22;7289;50.706;4.992;2023-05-07T07:21:46;20.00;99.90
14409;DHT22;7289;50.706;4.992;2023-05-07T07:24:16;20.10;99.90
14409;DHT22;7289;50.706;4.992;2023-05-07T07:26:51;20.10;99.90
14409;DHT22;7289;50.706;4.992;2023-05-07T07:29:22;20.20;99.90
14409;DHT22;7289;50.706;4.992;2023-05-07T07:31:53;20.30;99.90
14409;DHT22;7289;50.706;4.992;2023-05-07T07:34:22;20.50;99.90
14409;DHT22;7289;50.706;4.992;2023-05-07T07:36:50;20.80;99.90
14409;DHT22;7289;50.706;4.992;2023-05-07T07:39:19;21.00;99.90
14409;DHT22;7289;50.706;4.992;2023-05-07T07:41:50;21.20;99.70
14409;DHT22;7289;50.706;4.992;2023-05-07T07:44:22;21.40;99.10
14409;DHT22;7289;50.706;4.992;2023-05-07T07:46:56;21.20;98.70
14409;DHT22;7289;50.706;4.992;2023-05-07T07:49:26;20.80;98.70
14409;DHT22;7289;50.706;4.992;2023-05-07T07:51:56;20.60;98.70
14409;DHT22;7289;50.706;4.992;2023-05-07T07:54:26;20.40;99.30
14409;DHT22;7289;50.706;4.992;2023-05-07T07:56:56;20.70;99.10
14409;DHT22;7289;50.706;4.992;2023-05-07T07:59:26;20.90;98.90
14409;DHT22;7289;50.706;4.992;2023-05-07T08:01:54;21.10;98.70
14409;DHT22;7289;50.706;4.992;2023-05-07T08:04:26;21.20;98.10
14409;DHT22;7289;50.706;4.992;2023-05-07T08:06:56;21.10;98.60
14409;DHT22;7289;50.706;4.992;2023-05-07T08:09:25;21.10;98.40
14409;DHT22;7289;50.706;4.992;2023-05-07T08:11:55;21.10;98.50
14409;DHT22;7289;50.706;4.992;2023-05-07T08:14:23;21.40;97.80
14409;DHT22;7289;50.706;4.992;2023-05-07T08:16:53;21.30;98.10
14409;DHT22;7289;50.706;4.992;2023-05-07T08:19:22;21.00;98.40
14409;DHT22;7289;50.706;4.992;2023-05-07T08:21:51;20.90;98.50
14409;DHT22;7289;50.706;4.992;2023-05-07T08:24:20;21.00;98.40
14409;DHT22;7289;50.706;4.992;2023-05-07T08:26:48;21.00;98.60
14409;DHT22;7289;50.706;4.992;2023-05-07T08:29:17;20.60;99.00
14409;DHT22;7289;50.706;4.992;2023-05-07T08:31:46;20.40;99.70
14409;DHT22;7289;50.706;4.992;2023-05-07T08:34:16;20.20;99.90
14409;DHT22;7289;50.706;4.992;2023-05-07T08:36:46;20.30;99.90
14409;DHT22;7289;50.706;4.992;2023-05-07T08:39:18;20.10;99.90
14409;DHT22;7289;50.706;4.992;2023-05-07T08:41:52;19.90;99.90
14409;DHT22;7289;50.706;4.992;2023-05-07T08:44:22;19.80;99.90
14409;DHT22;7289;50.706;4.992;2023-05-07T08:46:54;19.90;99.90
14409;DHT22;7289;50.706;4.992;2023-05-07T08:49:25;20.10;99.90
14409;DHT22;7289;50.706;4.992;2023-05-07T08:51:54;20.20;99.90
14409;DHT22;7289;50.706;4.992;2023-05-07T08:54:25;20.20;99.90
14409;DHT22;7289;50.706;4.992;2023-05-07T08:56:55;20.50;99.90
14409;DHT22;7289;50.706;4.992;2023-05-07T08:59:24;20.60;99.90
14409;DHT22;7289;50.706;4.992;2023-05-07T09:01:52;20.40;99.90
14409;DHT22;7289;50.706;4.992;2023-05-07T09:04:21;20.40;99.90
14409;DHT22;7289;50.706;4.992;2023-05-07T09:06:51;20.30;99.90
14409;DHT22;7289;50.706;4.992;2023-05-07T09:09:21;20.30;99.90
14409;DHT22;7289;50.706;4.992;2023-05-07T09:11:57;20.30;99.90
14409;DHT22;7289;50.706;4.992;2023-05-07T09:14:28;20.30;99.90
14409;DHT22;7289;50.706;4.992;2023-05-07T09:16:57;20.00;99.90
14409;DHT22;7289;50.706;4.992;2023-05-07T09:19:26;19.60;99.90
14409;DHT22;7289;50.706;4.992;2023-05-07T09:22:00;19.30;99.90
14409;DHT22;7289;50.706;4.992;2023-05-07T09:24:34;19.30;99.90
14409;DHT22;7289;50.706;4.992;2023-05-07T09:27:07;19.30;99.90
14409;DHT22;7289;50.706;4.992;2023-05-07T09:29:38;19.30;99.90
14409;DHT22;7289;50.706;4.992;2023-05-07T09:32:07;19.40;99.90
14409;DHT22;7289;50.706;4.992;2023-05-07T09:34:37;19.30;99.90
14409;DHT22;7289;50.706;4.992;2023-05-07T09:37:08;19.30;99.90
14409;DHT22;7289;50.706;4.992;2023-05-07T09:39:40;19.20;99.90
14409;DHT22;7289;50.706;4.992;2023-05-07T09:42:10;19.20;99.90
14409;DHT22;7289;50.706;4.992;2023-05-07T09:44:40;19.10;99.90
14409;DHT22;7289;50.706;4.992;2023-05-07T09:47:15;19.10;99.90
14409;DHT22;7289;50.706;4.992;2023-05-07T09:49:50;19.00;99.90
14409;DHT22;7289;50.706;4.992;2023-05-07T09:52:23;19.00;99.90
14409;DHT22;7289;50.706;4.992;2023-05-07T09:54:58;18.90;99.90
14409;DHT22;7289;50.706;4.992;2023-05-07T09:57:29;19.00;99.90
14409;DHT22;7289;50.706;4.992;2023-05-07T10:00:03;18.90;99.90
14409;DHT22;7289;50.706;4.992;2023-05-07T10:02:47;18.80;99.90
14409;DHT22;7289;50.706;4.992;2023-05-07T10:05:20;18.60;99.90
14409;DHT22;7289;50.706;4.992;2023-05-07T10:07:53;18.50;99.90
14409;DHT22;7289;50.706;4.992;2023-05-07T10:10:24;18.60;99.90
14409;DHT22;7289;50.706;4.992;2023-05-07T10:12:53;18.60;99.90
14409;DHT22;7289;50.706;4.992;2023-05-07T10:15:29;18.50;99.90
14409;DHT22;7289;50.706;4.992;2023-05-07T10:17:59;18.50;99.90
14409;DHT22;7289;50.706;4.992;2023-05-07T10:20:29;18.30;99.90
14409;DHT22;7289;50.706;4.992;2023-05-07T10:22:59;18.30;99.90
14409;DHT22;7289;50.706;4.992;2023-05-07T10:25:36;18.50;99.90
14409;DHT22;7289;50.706;4.992;2023-05-07T10:28:12;18.50;99.90
14409;DHT22;7289;50.706;4.992;2023-05-07T10:30:53;18.70;99.90
14409;DHT22;7289;50.706;4.992;2023-05-07T10:33:35;18.90;99.90
14409;DHT22;7289;50.706;4.992;2023-05-07T10:36:05;19.10;99.90
14409;DHT22;7289;50.706;4.992;2023-05-07T10:38:36;19.10;99.90
14409;DHT22;7289;50.706;4.992;2023-05-07T10:41:05;19.20;99.90
14409;DHT22;7289;50.706;4.992;2023-05-07T10:43:41;19.20;99.90
14409;DHT22;7289;50.706;4.992;2023-05-07T10:46:17;19.10;99.90
14409;DHT22;7289;50.706;4.992;2023-05-07T10:49:10;19.00;99.90
14409;DHT22;7289;50.706;4.992;2023-05-07T10:52:12;19.20;99.90
14409;DHT22;7289;50.706;4.992;2023-05-07T10:55:19;19.30;99.90
14409;DHT22;7289;50.706;4.992;2023-05-07T10:58:24;19.40;99.90
14409;DHT22;7289;50.706;4.992;2023-05-07T11:01:50;19.60;99.90
14409;DHT22;7289;50.706;4.992;2023-05-07T11:04:26;19.60;99.90
14409;DHT22;7289;50.706;4.992;2023-05-07T11:07:25;19.70;99.90
14409;DHT22;7289;50.706;4.992;2023-05-07T11:10:01;19.80;99.90
14409;DHT22;7289;50.706;4.992;2023-05-07T11:12:55;19.90;99.90
14409;DHT22;7289;50.706;4.992;2023-05-07T11:15:50;20.00;99.90
14409;DHT22;7289;50.706;4.992;2023-05-07T11:18:46;20.10;99.90
14409;DHT22;7289;50.706;4.992;2023-05-07T11:21:34;20.30;99.90
14409;DHT22;7289;50.706;4.992;2023-05-07T11:24:26;20.40;99.90
14409;DHT22;7289;50.706;4.992;2023-05-07T11:27:00;20.50;99.90
14409;DHT22;7289;50.706;4.992;2023-05-07T11:29:31;20.60;99.90
14409;DHT22;7289;50.706;4.992;2023-05-07T11:32:09;20.70;99.90
14409;DHT22;7289;50.706;4.992;2023-05-07T11:34:44;20.70;99.90
14409;DHT22;7289;50.706;4.992;2023-05-07T11:37:17;20.70;99.90
14409;DHT22;7289;50.706;4.992;2023-05-07T11:40:03;20.80;99.90
14409;DHT22;7289;50.706;4.992;2023-05-07T11:42:35;20.90;99.90
14409;DHT22;7289;50.706;4.992;2023-05-07T11:45:06;20.90;99.90
14409;DHT22;7289;50.706;4.992;2023-05-07T11:47:35;20.80;99.90
14409;DHT22;7289;50.706;4.992;2023-05-07T11:50:08;20.80;99.90
14409;DHT22;7289;50.706;4.992;2023-05-07T11:52:38;21.00;99.90
14409;DHT22;7289;50.706;4.992;2023-05-07T11:55:07;21.00;99.90
14409;DHT22;7289;50.706;4.992;2023-05-07T11:57:37;20.80;99.90
14409;DHT22;7289;50.706;4.992;2023-05-07T12:00:07;20.80;99.90
14409;DHT22;7289;50.706;4.992;2023-05-07T12:02:39;20.90;99.90
14409;DHT22;7289;50.706;4.992;2023-05-07T12:05:09;20.90;99.90
14409;DHT22;7289;50.706;4.992;2023-05-07T12:07:38;21.10;99.90
14409;DHT22;7289;50.706;4.992;2023-05-07T12:10:07;21.20;99.90
14409;DHT22;7289;50.706;4.992;2023-05-07T12:12:40;21.30;99.90
14409;DHT22;7289;50.706;4.992;2023-05-07T12:15:09;21.30;99.90
14409;DHT22;7289;50.706;4.992;2023-05-07T12:17:38;21.50;99.90
14409;DHT22;7289;50.706;4.992;2023-05-07T12:20:08;21.70;99.90
14409;DHT22;7289;50.706;4.992;2023-05-07T12:22:37;21.80;99.90
14409;DHT22;7289;50.706;4.992;2023-05-07T12:25:06;21.80;99.90
14409;DHT22;7289;50.706;4.992;2023-05-07T12:27:37;21.40;99.90
14409;DHT22;7289;50.706;4.992;2023-05-07T12:30:10;21.50;99.90
14409;DHT22;7289;50.706;4.992;2023-05-07T12:32:38;21.60;99.90
14409;DHT22;7289;50.706;4.992;2023-05-07T12:35:08;21.40;99.90
14409;DHT22;7289;50.706;4.992;2023-05-07T12:37:36;21.00;99.90
14409;DHT22;7289;50.706;4.992;2023-05-07T12:40:06;21.00;99.90
14409;DHT22;7289;50.706;4.992;2023-05-07T12:42:36;20.90;99.90
14409;DHT22;7289;50.706;4.992;2023-05-07T12:45:10;21.00;99.90
14409;DHT22;7289;50.706;4.992;2023-05-07T12:47:43;21.10;99.90
14409;DHT22;7289;50.706;4.992;2023-05-07T12:50:12;21.20;99.90
14409;DHT22;7289;50.706;4.992;2023-05-07T12:52:41;21.10;99.90
14409;DHT22;7289;50.706;4.992;2023-05-07T12:55:12;21.10;99.90
14409;DHT22;7289;50.706;4.992;2023-05-07T12:57:43;21.10;99.90
14409;DHT22;7289;50.706;4.992;2023-05-07T13:00:14;21.30;99.90
14409;DHT22;7289;50.706;4.992;2023-05-07T13:02:43;21.50;99.90
14409;DHT22;7289;50.706;4.992;2023-05-07T13:05:12;21.40;99.90
14409;DHT22;7289;50.706;4.992;2023-05-07T13:07:41;21.40;99.90
14409;DHT22;7289;50.706;4.992;2023-05-07T13:10:21;21.40;99.90
14409;DHT22;7289;50.706;4.992;2023-05-07T13:12:49;21.40;99.90
14409;DHT22;7289;50.706;4.992;2023-05-07T13:15:21;21.30;99.90
14409;DHT22;7289;50.706;4.992;2023-05-07T13:17:50;21.20;99.90
14409;DHT22;7289;50.706;4.992;2023-05-07T13:20:19;21.30;99.90
14409;DHT22;7289;50.706;4.992;2023-05-07T13:22:47;21.40;99.90
14409;DHT22;7289;50.706;4.992;2023-05-07T13:25:15;21.50;99.90
14409;DHT22;7289;50.706;4.992;2023-05-07T13:27:44;21.40;99.90
14409;DHT22;7289;50.706;4.992;2023-05-07T13:30:18;21.40;99.90
14409;DHT22;7289;50.706;4.992;2023-05-07T13:32:47;21.40;99.90
14409;DHT22;7289;50.706;4.992;2023-05-07T13:35:16;21.20;99.90
14409;DHT22;7289;50.706;4.992;2023-05-07T13:37:45;21.20;99.90
14409;DHT22;7289;50.706;4.992;2023-05-07T13:40:13;21.30;99.90
14409;DHT22;7289;50.706;4.992;2023-05-07T13:42:41;21.20;99.90
14409;DHT22;7289;50.706;4.992;2023-05-07T13:45:10;21.10;99.90
14409;DHT22;7289;50.706;4.992;2023-05-07T13:47:42;21.00;99.90
14409;DHT22;7289;50.706;4.992;2023-05-07T13:50:11;21.10;99.90
14409;DHT22;7289;50.706;4.992;2023-05-07T13:52:41;21.40;99.90
14409;DHT22;7289;50.706;4.992;2023-05-07T13:55:13;21.50;99.90
14409;DHT22;7289;50.706;4.992;2023-05-07T13:57:41;21.50;99.90
14409;DHT22;7289;50.706;4.992;2023-05-07T14:00:11;21.50;99.90
14409;DHT22;7289;50.706;4.992;2023-05-07T14:02:44;21.30;99.90
14409;DHT22;7289;50.706;4.992;2023-05-07T14:05:12;21.60;99.90
14409;DHT22;7289;50.706;4.992;2023-05-07T14:07:40;21.80;99.90
14409;DHT22;7289;50.706;4.992;2023-05-07T14:10:10;22.00;99.90
14409;DHT22;7289;50.706;4.992;2023-05-07T14:12:39;22.10;99.90
14409;DHT22;7289;50.706;4.992;2023-05-07T14:15:08;22.10;99.90
14409;DHT22;7289;50.706;4.992;2023-05-07T14:17:37;22.40;99.90
14409;DHT22;7289;50.706;4.992;2023-05-07T14:20:08;22.30;99.90
14409;DHT22;7289;50.706;4.992;2023-05-07T14:22:38;22.10;99.90
14409;DHT22;7289;50.706;4.992;2023-05-07T14:25:07;22.20;99.90
14409;DHT22;7289;50.706;4.992;2023-05-07T14:27:36;22.10;99.90
14409;DHT22;7289;50.706;4.992;2023-05-07T14:30:06;22.20;99.90
14409;DHT22;7289;50.706;4.992;2023-05-07T14:32:35;22.30;99.90
14409;DHT22;7289;50.706;4.992;2023-05-07T14:35:04;21.80;99.90
14409;DHT22;7289;50.706;4.992;2023-05-07T14:37:34;22.00;99.90
14409;DHT22;7289;50.706;4.992;2023-05-07T14:40:02;21.90;99.90
14409;DHT22;7289;50.706;4.992;2023-05-07T14:42:31;22.10;99.90
14409;DHT22;7289;50.706;4.992;2023-05-07T14:44:59;22.20;99.90
14409;DHT22;7289;50.706;4.992;2023-05-07T14:47:28;22.40;99.90
14409;DHT22;7289;50.706;4.992;2023-05-07T14:49:56;22.40;99.90
14409;DHT22;7289;50.706;4.992;2023-05-07T14:52:25;22.40;99.90
14409;DHT22;7289;50.706;4.992;2023-05-07T14:54:55;22.30;99.90
14409;DHT22;7289;50.706;4.992;2023-05-07T14:57:23;21.90;99.90
14409;DHT22;7289;50.706;4.992;2023-05-07T14:59:51;21.70;99.90
14409;DHT22;7289;50.706;4.992;2023-05-07T15:02:20;21.60;99.90
14409;DHT22;7289;50.706;4.992;2023-05-07T15:04:49;21.60;99.90
14409;DHT22;7289;50.706;4.992;2023-05-07T15:07:17;21.60;99.90
14409;DHT22;7289;50.706;4.992;2023-05-07T15:09:45;21.40;99.90
14409;DHT22;7289;50.706;4.992;2023-05-07T15:12:15;21.30;99.90
14409;DHT22;7289;50.706;4.992;2023-05-07T15:14:43;20.90;99.90
14409;DHT22;7289;50.706;4.992;2023-05-07T15:17:13;21.00;99.90
14409;DHT22;7289;50.706;4.992;2023-05-07T15:19:41;21.10;99.90
14409;DHT22;7289;50.706;4.992;2023-05-07T15:22:10;21.20;99.90
14409;DHT22;7289;50.706;4.992;2023-05-07T15:24:38;21.30;99.90
14409;DHT22;7289;50.706;4.992;2023-05-07T15:27:06;21.20;99.90
14409;DHT22;7289;50.706;4.992;2023-05-07T15:29:36;21.30;99.90
14409;DHT22;7289;50.706;4.992;2023-05-07T15:32:05;21.30;99.90
14409;DHT22;7289;50.706;4.992;2023-05-07T15:34:33;21.50;99.90
14409;DHT22;7289;50.706;4.992;2023-05-07T15:37:02;21.30;99.90
14409;DHT22;7289;50.706;4.992;2023-05-07T15:39:30;21.20;99.90
14409;DHT22;7289;50.706;4.992;2023-05-07T15:41:59;21.00;99.90
14409;DHT22;7289;50.706;4.992;2023-05-07T15:44:28;21.10;99.90
14409;DHT22;7289;50.706;4.992;2023-05-07T15:47:03;21.10;99.90
14409;DHT22;7289;50.706;4.992;2023-05-07T15:49:32;21.10;99.90
14409;DHT22;7289;50.706;4.992;2023-05-07T15:52:00;20.80;99.90
14409;DHT22;7289;50.706;4.992;2023-05-07T15:54:29;21.00;99.90
14409;DHT22;7289;50.706;4.992;2023-05-07T15:56:58;21.10;99.90
14409;DHT22;7289;50.706;4.992;2023-05-07T15:59:27;21.20;99.90
14409;DHT22;7289;50.706;4.992;2023-05-07T16:01:56;21.60;99.90
14409;DHT22;7289;50.706;4.992;2023-05-07T16:04:26;21.80;99.90
14409;DHT22;7289;50.706;4.992;2023-05-07T16:06:54;21.70;99.90